Time;durP1;ratioP1;P1;durP2;ratioP2;P2;SDS_P1;SDS_P2;PMS_P1;PMS_P2;Temp;Humidity;BMP_temperature;BMP_pressure;BME280_temperature;BME280_humidity;BME280_pressure;Samples;Min_cycle;Max_cycle;Signal;HPM_P1;HPM_P2
2021/11/02 00:01:16;;;;;;;0.88;0.38;;;;;;;;;;7334058;19;162577;-16
2021/11/02 00:03:50;;;;;;;0.38;0.38;;;;;;;;;;7335841;19;154298;-14
2021/11/02 00:06:22;;;;;;;0.40;0.38;;;;;;;;;;7333734;19;153586;-14
2021/11/02 00:08:53;;;;;;;0.32;0.32;;;;;;;;;;7332988;19;161853;-14
2021/11/02 00:11:25;;;;;;;0.40;0.40;;;;;;;;;;7332975;19;162336;-13
2021/11/02 00:14:05;;;;;;;0.25;0.25;;;;;;;;;;7332580;19;154683;-16
2021/11/02 00:16:38;;;;;;;0.20;0.20;;;;;;;;;;7333226;19;153575;-16
2021/11/02 00:19:13;;;;;;;0.32;0.32;;;;;;;;;;7332933;19;163390;-15
2021/11/02 00:21:46;;;;;;;0.28;0.28;;;;;;;;;;7332604;19;162389;-17
2021/11/02 00:24:28;;;;;;;0.65;0.30;;;;;;;;;;7334371;19;154049;-15
2021/11/02 00:26:59;;;;;;;0.22;0.22;;;;;;;;;;7332471;19;153472;-14
2021/11/02 00:29:30;;;;;;;0.55;0.40;;;;;;;;;;7331242;19;161778;-17
2021/11/02 00:32:01;;;;;;;0.30;0.30;;;;;;;;;;7333382;19;162510;-15
2021/11/02 10:25:23;;;;;;;0.50;0.50;;;;;;;;;;7366724;19;133151;-15
2021/11/02 10:28:30;;;;;;;0.68;0.68;;;;;;;;;;7367996;19;153618;-15
2021/11/02 10:31:05;;;;;;;0.65;0.50;;;;;;;;;;7365012;19;161875;-14
2021/11/02 10:33:38;;;;;;;0.50;0.50;;;;;;;;;;7363315;19;162621;-13
2021/11/02 10:36:19;;;;;;;0.40;0.40;;;;;;;;;;7364879;19;154070;-13
2021/11/02 10:39:04;;;;;;;0.63;0.50;;;;;;;;;;7361264;19;153716;-13
2021/11/02 10:41:52;;;;;;;0.50;0.50;;;;;;;;;;7366781;19;161765;-15
2021/11/02 10:44:32;;;;;;;0.40;0.40;;;;;;;;;;7365520;19;162421;-13
2021/11/02 10:47:11;;;;;;;0.47;0.40;;;;;;;;;;7366025;19;153916;-14
2021/11/02 10:50:06;;;;;;;0.75;0.40;;;;;;;;;;7365354;19;153779;-14
2021/11/02 10:52:40;;;;;;;0.30;0.30;;;;;;;;;;7365374;19;162176;-14
2021/11/02 10:55:26;;;;;;;0.30;0.30;;;;;;;;;;7366849;19;162524;-13
2021/11/02 10:58:22;;;;;;;0.50;0.50;;;;;;;;;;7365060;19;153963;-14
2021/11/02 11:00:54;;;;;;;0.40;0.40;;;;;;;;;;7366135;19;153696;-13
2021/11/02 11:03:31;;;;;;;0.50;0.50;;;;;;;;;;7366194;19;161995;-13
2021/11/02 11:06:03;;;;;;;0.50;0.50;;;;;;;;;;7366554;19;162429;-13
2021/11/02 11:08:36;;;;;;;0.50;0.47;;;;;;;;;;7362251;19;154200;-14
2021/11/02 11:11:09;;;;;;;0.40;0.40;;;;;;;;;;7361924;19;153502;-13
2021/11/02 11:13:46;;;;;;;0.30;0.30;;;;;;;;;;7362352;19;161822;-13
2021/11/02 11:16:20;;;;;;;0.25;0.25;;;;;;;;;;7363254;19;162401;-15
2021/11/02 11:18:58;;;;;;;0.30;0.30;;;;;;;;;;7363009;19;154060;-15
2021/11/02 11:21:30;;;;;;;0.30;0.30;;;;;;;;;;7362114;19;153667;-13
2021/11/02 11:24:09;;;;;;;0.40;0.40;;;;;;;;;;7358903;19;161826;-15
2021/11/02 11:26:47;;;;;;;0.30;0.30;;;;;;;;;;7334042;19;162522;-14
2021/11/02 11:29:25;;;;;;;0.20;0.20;;;;;;;;;;7333512;19;154231;-14
2021/11/02 11:32:00;;;;;;;0.28;0.28;;;;;;;;;;7334535;19;153472;-13
2021/11/02 11:34:34;;;;;;;0.40;0.40;;;;;;;;;;7332652;19;161850;-14
2021/11/02 11:37:10;;;;;;;0.50;0.50;;;;;;;;;;7334134;19;162367;-13
2021/11/02 11:39:44;;;;;;;0.40;0.40;;;;;;;;;;7333504;19;154210;-14
2021/11/02 11:42:18;;;;;;;0.50;0.47;;;;;;;;;;7334311;19;153592;-15
2021/11/02 11:44:55;;;;;;;0.30;0.30;;;;;;;;;;7333754;19;161820;-15
2021/11/02 11:47:28;;;;;;;0.30;0.30;;;;;;;;;;7333537;19;162100;-13
2021/11/02 11:49:59;;;;;;;0.52;0.43;;;;;;;;;;7333937;19;153943;-14
2021/11/02 11:52:32;;;;;;;0.30;0.30;;;;;;;;;;7333927;19;153776;-14
2021/11/02 11:55:08;;;;;;;0.40;0.40;;;;;;;;;;7331799;19;161991;-14
2021/11/02 11:57:40;;;;;;;0.40;0.40;;;;;;;;;;7333312;19;162225;-16
2021/11/02 12:00:15;;;;;;;0.30;0.30;;;;;;;;;;7333815;19;154466;-15
2021/11/02 12:02:56;;;;;;;0.40;0.40;;;;;;;;;;7333653;19;153585;-15
2021/11/02 12:05:27;;;;;;;0.30;0.30;;;;;;;;;;7333228;19;161989;-15
2021/11/02 12:08:07;;;;;;;0.37;0.37;;;;;;;;;;7333008;19;162446;-16
2021/11/02 12:10:40;;;;;;;0.40;0.40;;;;;;;;;;7333521;19;153925;-14
2021/11/02 12:13:13;;;;;;;0.47;0.47;;;;;;;;;;7333495;19;153527;-16
2021/11/02 12:16:18;;;;;;;;;;;;;;;;;;;;;
2021/11/02 12:19:03;;;;;;;0.30;0.30;;;;;;;;;;7331445;19;162533;-25
2021/11/02 12:21:38;;;;;;;0.35;0.35;;;;;;;;;;7333336;19;153977;-16
2021/11/02 12:24:11;;;;;;;0.30;0.30;;;;;;;;;;7331575;19;153579;-14
2021/11/02 12:26:48;;;;;;;0.65;0.45;;;;;;;;;;7332619;19;161769;-14
2021/11/02 12:29:22;;;;;;;0.30;0.30;;;;;;;;;;7332465;19;162584;-16
2021/11/02 12:32:04;;;;;;;0.45;0.45;;;;;;;;;;7332754;19;153894;-16
2021/11/02 12:34:50;;;;;;;0.40;0.40;;;;;;;;;;7331897;19;153655;-23
2021/11/02 12:37:23;;;;;;;0.40;0.40;;;;;;;;;;7329767;19;161851;-14
2021/11/02 12:39:55;;;;;;;0.30;0.30;;;;;;;;;;7332308;19;162622;-16
2021/11/02 12:42:38;;;;;;;0.40;0.35;;;;;;;;;;7332679;19;154353;-15
2021/11/02 12:45:10;;;;;;;0.30;0.30;;;;;;;;;;7332500;19;153620;-15
2021/11/02 12:47:46;;;;;;;0.30;0.30;;;;;;;;;;7331854;19;162532;-18
2021/11/02 12:50:21;;;;;;;0.88;0.32;;;;;;;;;;7332076;19;162359;-15
2021/11/02 12:52:53;;;;;;;0.30;0.30;;;;;;;;;;7332370;19;153957;-15
2021/11/02 12:55:24;;;;;;;0.28;0.28;;;;;;;;;;7330530;19;153527;-14
2021/11/02 12:58:03;;;;;;;0.30;0.30;;;;;;;;;;7331651;19;161852;-16
2021/11/02 13:00:45;;;;;;;0.30;0.30;;;;;;;;;;7330271;19;163112;-14
2021/11/02 13:03:28;;;;;;;0.30;0.30;;;;;;;;;;7331850;19;153948;-13
2021/11/02 13:06:03;;;;;;;0.43;0.30;;;;;;;;;;7330646;19;153508;-14
2021/11/02 13:08:43;;;;;;;0.30;0.30;;;;;;;;;;7330137;19;162055;-16
2021/11/02 13:11:16;;;;;;;0.45;0.45;;;;;;;;;;7330205;19;162389;-15
2021/11/02 13:14:07;;;;;;;0.40;0.40;;;;;;;;;;7331705;19;153937;-13
2021/11/02 13:16:58;;;;;;;0.40;0.40;;;;;;;;;;7328725;19;153754;-15
2021/11/02 13:19:43;;;;;;;0.30;0.30;;;;;;;;;;7330954;19;161825;-15
2021/11/02 13:22:16;;;;;;;0.50;0.50;;;;;;;;;;7330787;19;162831;-15
2021/11/02 13:25:04;;;;;;;0.40;0.40;;;;;;;;;;7328667;19;153966;-14
2021/11/02 13:27:47;;;;;;;0.40;0.40;;;;;;;;;;7330972;19;153583;-14
2021/11/02 13:30:26;;;;;;;0.55;0.50;;;;;;;;;;7330636;19;161822;-15
2021/11/02 13:33:03;;;;;;;1.02;0.60;;;;;;;;;;7330654;19;162677;-16
2021/11/02 13:35:51;;;;;;;0.47;0.47;;;;;;;;;;7329565;19;154004;-17
2021/11/02 13:38:37;;;;;;;0.50;0.50;;;;;;;;;;7330696;19;153574;-14
2021/11/02 13:41:12;;;;;;;0.25;0.25;;;;;;;;;;7330211;19;161792;-14
2021/11/02 13:43:48;;;;;;;0.30;0.30;;;;;;;;;;7329453;19;162422;-13
2021/11/02 13:46:21;;;;;;;0.40;0.40;;;;;;;;;;7330766;19;153961;-14
2021/11/02 13:48:52;;;;;;;0.65;0.50;;;;;;;;;;7329946;19;153541;-13
2021/11/02 13:51:27;;;;;;;0.40;0.40;;;;;;;;;;7330088;19;162038;-15
2021/11/02 13:54:00;;;;;;;0.40;0.40;;;;;;;;;;7330097;19;162637;-13
2021/11/02 13:56:33;;;;;;;0.60;0.60;;;;;;;;;;7328108;19;153718;-15
2021/11/02 13:59:08;;;;;;;0.50;0.50;;;;;;;;;;7330391;19;153430;-15
2021/11/02 14:01:45;;;;;;;0.52;0.50;;;;;;;;;;7330049;19;162123;-12
2021/11/02 14:04:19;;;;;;;0.60;0.60;;;;;;;;;;7329803;19;162330;-16
2021/11/02 14:06:57;;;;;;;0.50;0.50;;;;;;;;;;7329891;19;154196;-14
2021/11/02 14:09:31;;;;;;;0.57;0.57;;;;;;;;;;7329960;19;153907;-15
2021/11/02 14:12:02;;;;;;;0.82;0.63;;;;;;;;;;7329417;19;162386;-15
2021/11/02 14:14:35;;;;;;;0.52;0.52;;;;;;;;;;7329363;19;162344;-15
2021/11/02 14:17:21;;;;;;;0.57;0.57;;;;;;;;;;7327577;19;154025;-16
2021/11/02 14:19:54;;;;;;;0.60;0.60;;;;;;;;;;7330162;19;153563;-14
2021/11/02 14:22:48;;;;;;;0.60;0.60;;;;;;;;;;7329235;19;161983;-15
2021/11/02 14:25:22;;;;;;;0.60;0.60;;;;;;;;;;7329322;19;162357;-14
2021/11/02 14:27:54;;;;;;;0.98;0.75;;;;;;;;;;7329263;19;154202;-15
2021/11/02 14:30:26;;;;;;;;;;;;;;;;;;7329765;19;153726;-13
2021/11/02 14:33:19;;;;;;;0.50;0.50;;;;;;;;;;7328937;19;161932;-12
2021/11/02 14:35:56;;;;;;;0.50;0.50;;;;;;;;;;7328107;19;162560;-13
2021/11/02 14:38:31;;;;;;;0.82;0.55;;;;;;;;;;7329394;19;154237;-15
2021/11/02 14:41:34;;;;;;;0.40;0.40;;;;;;;;;;7328961;19;153607;-13
2021/11/02 14:44:27;;;;;;;0.80;0.50;;;;;;;;;;7328504;19;162082;-13
2021/11/02 14:47:00;;;;;;;0.60;0.60;;;;;;;;;;7328603;19;162386;-16
2021/11/02 14:49:41;;;;;;;;;;;;;;;;;;7329480;19;154118;-15
2021/11/02 14:52:13;;;;;;;0.95;0.70;;;;;;;;;;7329001;19;153319;-14
2021/11/02 14:54:48;;;;;;;0.57;0.52;;;;;;;;;;7327528;19;161580;-13
2021/11/02 14:57:49;;;;;;;0.70;0.70;;;;;;;;;;7325985;19;162931;-15
2021/11/02 15:00:45;;;;;;;1.08;0.80;;;;;;;;;;7334181;19;153983;-14
2021/11/02 15:03:22;;;;;;;1.05;0.80;;;;;;;;;;7336533;19;153485;-14
2021/11/02 15:05:53;;;;;;;1.45;0.73;;;;;;;;;;7338332;19;161819;-14
2021/11/02 15:08:25;;;;;;;0.60;0.60;;;;;;;;;;7336632;19;162407;-14
2021/11/02 15:11:02;;;;;;;0.50;0.50;;;;;;;;;;7334942;19;154128;-14
2021/11/02 15:13:33;;;;;;;0.50;0.50;;;;;;;;;;7336968;19;153569;-16
2021/11/02 15:16:05;;;;;;;0.85;0.70;;;;;;;;;;7336973;19;161974;-17
2021/11/02 15:18:43;;;;;;;0.55;0.55;;;;;;;;;;7338181;19;162457;-16
2021/11/02 15:21:17;;;;;;;0.70;0.70;;;;;;;;;;7336865;19;154012;-15
2021/11/02 15:23:54;;;;;;;0.52;0.52;;;;;;;;;;7336076;19;153625;-15
2021/11/02 15:26:50;;;;;;;0.60;0.60;;;;;;;;;;7337393;19;162346;-14
2021/11/02 15:29:22;;;;;;;;;;;;;;;;;;7333590;19;162631;-14
2021/11/02 15:32:06;;;;;;;0.50;0.50;;;;;;;;;;7332958;19;154125;-15
2021/11/02 15:34:48;;;;;;;0.57;0.43;;;;;;;;;;7335720;19;153556;-14
2021/11/02 15:37:22;;;;;;;0.40;0.40;;;;;;;;;;7334965;19;161797;-15
2021/11/02 15:39:57;;;;;;;0.40;0.40;;;;;;;;;;7334934;19;162389;-13
2021/11/02 15:42:34;;;;;;;0.70;0.50;;;;;;;;;;7336516;19;154045;-14
2021/11/02 15:45:10;;;;;;;0.63;0.40;;;;;;;;;;7337195;19;153481;-14
2021/11/02 15:47:45;;;;;;;0.73;0.60;;;;;;;;;;7334872;19;162052;-13
2021/11/02 15:50:19;;;;;;;0.63;0.50;;;;;;;;;;7330486;19;162560;-12
2021/11/02 15:52:50;;;;;;;0.50;0.50;;;;;;;;;;7329945;19;153991;-14
2021/11/02 15:55:25;;;;;;;0.30;0.30;;;;;;;;;;7336171;19;153698;-15
2021/11/02 15:58:02;;;;;;;0.60;0.60;;;;;;;;;;7332381;19;161802;-15
2021/11/02 16:00:35;;;;;;;0.40;0.40;;;;;;;;;;7332078;19;162562;-14
2021/11/02 16:03:07;;;;;;;0.50;0.40;;;;;;;;;;7334606;19;154032;-14
2021/11/02 16:05:42;;;;;;;0.47;0.47;;;;;;;;;;7331846;19;153817;-13
2021/11/02 16:08:17;;;;;;;0.63;0.63;;;;;;;;;;7335352;19;162177;-15
2021/11/02 16:10:49;;;;;;;0.40;0.40;;;;;;;;;;7333444;19;162584;-14
2021/11/02 16:13:29;;;;;;;0.43;0.43;;;;;;;;;;7331870;19;153746;-15
2021/11/02 16:16:02;;;;;;;0.52;0.50;;;;;;;;;;7336026;19;153539;-15
2021/11/02 16:18:37;;;;;;;0.45;0.45;;;;;;;;;;7333707;19;161848;-13
2021/11/02 16:21:09;;;;;;;0.80;0.57;;;;;;;;;;7330709;19;162591;-14
2021/11/02 16:23:43;;;;;;;0.50;0.50;;;;;;;;;;7333459;19;154185;-16
2021/11/02 16:26:17;;;;;;;0.60;0.50;;;;;;;;;;7332771;19;153511;-13
2021/11/02 16:28:58;;;;;;;1.38;0.50;;;;;;;;;;7334450;19;161955;-15
2021/11/02 16:31:31;;;;;;;0.50;0.50;;;;;;;;;;7329934;19;162405;-13
2021/11/02 16:34:23;;;;;;;0.38;0.38;;;;;;;;;;7330744;19;154224;-15
2021/11/02 16:36:56;;;;;;;0.40;0.40;;;;;;;;;;7331383;19;153613;-15
2021/11/02 16:39:28;;;;;;;0.30;0.30;;;;;;;;;;7333497;19;161861;-14
2021/11/02 16:42:07;;;;;;;0.40;0.40;;;;;;;;;;7334533;19;162410;-15
2021/11/02 16:44:43;;;;;;;0.55;0.38;;;;;;;;;;7334311;19;153990;-15
2021/11/02 16:47:17;;;;;;;0.52;0.40;;;;;;;;;;7334423;19;153538;-17
2021/11/02 16:49:49;;;;;;;0.35;0.30;;;;;;;;;;7335338;19;162061;-13
2021/11/02 16:52:30;;;;;;;1.23;0.45;;;;;;;;;;7331865;19;162666;-17
2021/11/02 16:55:11;;;;;;;0.40;0.40;;;;;;;;;;7334540;19;153954;-14
2021/11/02 16:57:47;;;;;;;0.40;0.40;;;;;;;;;;7334561;19;153541;-22
2021/11/02 17:00:31;;;;;;;0.55;0.45;;;;;;;;;;7335875;19;161896;-15
2021/11/02 17:03:09;;;;;;;0.30;0.30;;;;;;;;;;7333557;19;162173;-17
2021/11/02 17:05:42;;;;;;;0.45;0.40;;;;;;;;;;7335072;19;153998;-16
2021/11/02 17:08:14;;;;;;;1.02;0.52;;;;;;;;;;7335820;19;153721;-14
2021/11/02 17:10:47;;;;;;;0.38;0.38;;;;;;;;;;7334921;19;161896;-14
2021/11/02 17:13:20;;;;;;;0.57;0.57;;;;;;;;;;7334032;19;162822;-16
2021/11/02 17:15:58;;;;;;;1.27;0.40;;;;;;;;;;7331383;19;153948;-16
2021/11/02 17:18:42;;;;;;;0.40;0.40;;;;;;;;;;7332666;19;153590;-16
2021/11/02 17:21:16;;;;;;;0.63;0.40;;;;;;;;;;7331435;19;161858;-14
2021/11/02 17:23:50;;;;;;;0.40;0.40;;;;;;;;;;7330780;19;162361;-15
2021/11/02 17:26:24;;;;;;;0.40;0.40;;;;;;;;;;7332448;19;154068;-26
2021/11/02 17:28:56;;;;;;;0.30;0.30;;;;;;;;;;7334089;19;153546;-16
2021/11/02 17:31:37;;;;;;;0.30;0.30;;;;;;;;;;7333972;19;161991;-18
2021/11/02 17:34:10;;;;;;;0.50;0.50;;;;;;;;;;7333781;19;162567;-14
2021/11/02 17:36:42;;;;;;;0.20;0.20;;;;;;;;;;7332877;19;153913;-16
2021/11/02 17:39:16;;;;;;;0.38;0.38;;;;;;;;;;7330234;19;153475;-15
2021/11/02 17:41:49;;;;;;;0.30;0.30;;;;;;;;;;7333603;19;161927;-14
2021/11/02 17:44:21;;;;;;;0.98;0.40;;;;;;;;;;7332441;19;162412;-16
2021/11/02 17:46:56;;;;;;;1.43;0.50;;;;;;;;;;7332572;19;153957;-13
2021/11/02 17:49:28;;;;;;;0.45;0.30;;;;;;;;;;7332986;19;153759;-15
2021/11/02 17:52:00;;;;;;;0.77;0.40;;;;;;;;;;7331899;19;161824;-14
2021/11/02 17:54:32;;;;;;;0.57;0.40;;;;;;;;;;7331941;19;162547;-13
2021/11/02 17:57:04;;;;;;;0.85;0.40;;;;;;;;;;7332174;19;154197;-14
2021/11/02 17:59:36;;;;;;;0.30;0.30;;;;;;;;;;7331359;19;153534;-16
2021/11/02 18:02:14;;;;;;;1.00;0.40;;;;;;;;;;7331990;19;161926;-15
2021/11/02 18:04:46;;;;;;;0.25;0.25;;;;;;;;;;7331796;19;162336;-17
2021/11/02 18:07:18;;;;;;;0.45;0.43;;;;;;;;;;7331757;19;153779;-15
2021/11/02 18:09:49;;;;;;;1.23;0.40;;;;;;;;;;7331923;19;153680;-15
2021/11/02 18:12:21;;;;;;;0.30;0.30;;;;;;;;;;7333608;19;162093;-14
2021/11/02 18:14:53;;;;;;;0.20;0.20;;;;;;;;;;7333228;19;162591;-15
2021/11/02 18:17:28;;;;;;;0.30;0.30;;;;;;;;;;7333801;19;154075;-16
2021/11/02 18:20:01;;;;;;;0.52;0.47;;;;;;;;;;7329941;19;153527;-13
2021/11/02 18:22:33;;;;;;;0.77;0.57;;;;;;;;;;7332465;19;162002;-15
2021/11/02 18:25:05;;;;;;;0.32;0.32;;;;;;;;;;7327113;19;162350;-15
2021/11/02 18:27:37;;;;;;;0.32;0.32;;;;;;;;;;7329677;19;153966;-16
2021/11/02 18:30:10;;;;;;;0.32;0.32;;;;;;;;;;7331939;19;153676;-14
2021/11/02 18:32:45;;;;;;;0.40;0.40;;;;;;;;;;7333134;19;161978;-17
2021/11/02 18:35:18;;;;;;;0.30;0.30;;;;;;;;;;7332753;19;162403;-16
2021/11/02 18:37:50;;;;;;;0.50;0.47;;;;;;;;;;7336901;19;153724;-13
2021/11/02 18:40:23;;;;;;;0.70;0.32;;;;;;;;;;7337032;19;153631;-13
2021/11/02 18:42:56;;;;;;;0.30;0.30;;;;;;;;;;7339357;19;161879;-16
2021/11/02 18:45:28;;;;;;;0.95;0.30;;;;;;;;;;7336819;19;162579;-16
2021/11/02 18:48:03;;;;;;;0.30;0.30;;;;;;;;;;7338203;19;153963;-14
2021/11/02 18:50:35;;;;;;;0.52;0.30;;;;;;;;;;7339199;19;153738;-15
2021/11/02 18:53:07;;;;;;;0.50;0.40;;;;;;;;;;7338466;19;161948;-16
2021/11/02 18:55:38;;;;;;;0.20;0.20;;;;;;;;;;7336811;19;162431;-12
2021/11/02 18:58:09;;;;;;;0.40;0.40;;;;;;;;;;7337945;19;154074;-14
2021/11/02 19:00:41;;;;;;;0.35;0.35;;;;;;;;;;7334468;19;153991;-13
2021/11/02 19:03:15;;;;;;;0.20;0.20;;;;;;;;;;7339264;19;161995;-16
2021/11/02 19:05:47;;;;;;;0.30;0.30;;;;;;;;;;7337181;19;162429;-14
2021/11/02 19:08:20;;;;;;;1.48;0.52;;;;;;;;;;7337821;19;154264;-16
2021/11/02 19:10:53;;;;;;;0.32;0.30;;;;;;;;;;7338743;19;153658;-14
2021/11/02 19:13:24;;;;;;;1.02;0.30;;;;;;;;;;7338532;19;162106;-15
2021/11/02 19:15:56;;;;;;;0.30;0.30;;;;;;;;;;7338100;19;162415;-17
2021/11/02 19:18:30;;;;;;;0.40;0.40;;;;;;;;;;7337719;19;154081;-15
2021/11/02 19:21:01;;;;;;;0.30;0.30;;;;;;;;;;7338452;19;153530;-14
2021/11/02 19:23:33;;;;;;;0.30;0.30;;;;;;;;;;7337632;19;161826;-13
2021/11/02 19:26:07;;;;;;;0.30;0.30;;;;;;;;;;7337146;19;162416;-14
2021/11/02 19:28:39;;;;;;;0.28;0.28;;;;;;;;;;7338043;19;154018;-15
2021/11/02 19:31:11;;;;;;;0.45;0.38;;;;;;;;;;7338655;19;153541;-15
2021/11/02 19:33:45;;;;;;;0.67;0.30;;;;;;;;;;7333189;19;161839;-15
2021/11/02 19:36:17;;;;;;;0.30;0.30;;;;;;;;;;7330293;19;162530;-14
2021/11/02 19:38:48;;;;;;;0.40;0.40;;;;;;;;;;7333952;19;154086;-14
2021/11/02 19:41:20;;;;;;;0.20;0.20;;;;;;;;;;7338564;19;153584;-14
2021/11/02 19:43:51;;;;;;;0.20;0.20;;;;;;;;;;7334159;19;161999;-17
2021/11/02 19:46:23;;;;;;;0.30;0.30;;;;;;;;;;7333002;19;163054;-17
2021/11/02 19:48:57;;;;;;;0.20;0.20;;;;;;;;;;7337803;19;154154;-16
2021/11/02 19:51:29;;;;;;;0.30;0.30;;;;;;;;;;7337149;19;154542;-16
2021/11/02 19:54:00;;;;;;;1.60;0.50;;;;;;;;;;7337475;19;161945;-16
2021/11/02 19:56:32;;;;;;;0.32;0.30;;;;;;;;;;7333807;19;162573;-14
2021/11/02 19:59:03;;;;;;;0.40;0.40;;;;;;;;;;7335838;19;153990;-14
2021/11/02 20:01:35;;;;;;;0.70;0.20;;;;;;;;;;7335483;19;153495;-14
2021/11/02 20:04:09;;;;;;;0.30;0.30;;;;;;;;;;7337416;19;161577;-15
2021/11/02 20:06:43;;;;;;;0.20;0.20;;;;;;;;;;7335409;19;162413;-14
2021/11/02 20:09:18;;;;;;;0.35;0.35;;;;;;;;;;7337198;19;154030;-16
2021/11/02 20:11:54;;;;;;;0.28;0.28;;;;;;;;;;7337748;19;153515;-16
2021/11/02 20:14:27;;;;;;;0.38;0.35;;;;;;;;;;7333137;19;161972;-14
2021/11/02 20:17:01;;;;;;;0.30;0.30;;;;;;;;;;7332061;19;162366;-14
2021/11/02 20:19:36;;;;;;;0.30;0.30;;;;;;;;;;7333085;19;153972;-15
2021/11/02 20:22:09;;;;;;;0.30;0.30;;;;;;;;;;7333667;19;154291;-16
2021/11/02 20:24:42;;;;;;;0.20;0.20;;;;;;;;;;7333766;19;161978;-15
2021/11/02 20:27:16;;;;;;;0.28;0.28;;;;;;;;;;7335036;19;162435;-16
2021/11/02 20:29:48;;;;;;;0.30;0.30;;;;;;;;;;7334325;19;153964;-15
2021/11/02 20:32:23;;;;;;;0.38;0.30;;;;;;;;;;7333948;19;154415;-15
2021/11/02 20:34:58;;;;;;;0.30;0.20;;;;;;;;;;7330386;19;161935;-14
2021/11/02 20:37:35;;;;;;;0.63;0.30;;;;;;;;;;7336174;19;162630;-15
2021/11/02 20:40:09;;;;;;;0.30;0.30;;;;;;;;;;7333924;19;154030;-14
2021/11/02 20:42:45;;;;;;;0.30;0.30;;;;;;;;;;7332681;19;153556;-14
2021/11/02 20:45:20;;;;;;;0.30;0.30;;;;;;;;;;7335821;19;161906;-15
2021/11/02 20:47:56;;;;;;;0.20;0.20;;;;;;;;;;7334733;19;162362;-16
2021/11/02 20:50:33;;;;;;;0.30;0.30;;;;;;;;;;7332978;19;153994;-13
2021/11/02 20:53:04;;;;;;;0.35;0.30;;;;;;;;;;7333918;19;153669;-16
2021/11/02 20:55:36;;;;;;;1.15;0.38;;;;;;;;;;7332657;19;161871;-15
2021/11/02 20:58:08;;;;;;;0.30;0.30;;;;;;;;;;7331990;19;162610;-13
2021/11/02 21:00:40;;;;;;;0.32;0.32;;;;;;;;;;7333019;19;154210;-16
2021/11/02 21:03:14;;;;;;;0.38;0.38;;;;;;;;;;7332459;19;153615;-14
2021/11/02 21:05:49;;;;;;;0.40;0.40;;;;;;;;;;7329997;19;161829;-16
2021/11/02 21:08:23;;;;;;;0.90;0.40;;;;;;;;;;7330208;19;162431;-18
2021/11/02 21:11:00;;;;;;;0.35;0.32;;;;;;;;;;7334020;19;154028;-16
2021/11/02 21:13:38;;;;;;;0.65;0.32;;;;;;;;;;7331652;19;153779;-15
2021/11/02 21:16:13;;;;;;;0.98;0.38;;;;;;;;;;7331631;19;161949;-15
2021/11/02 21:18:55;;;;;;;1.65;0.40;;;;;;;;;;7331474;19;162435;-14
2021/11/02 21:21:29;;;;;;;1.15;0.40;;;;;;;;;;7330109;19;154354;-15
2021/11/02 21:24:01;;;;;;;0.63;0.40;;;;;;;;;;7329998;19;153645;-14
2021/11/02 21:26:34;;;;;;;0.40;0.40;;;;;;;;;;7333043;19;161779;-27
2021/11/02 21:29:06;;;;;;;0.63;0.50;;;;;;;;;;7331107;19;162157;-15
2021/11/02 21:31:38;;;;;;;0.40;0.40;;;;;;;;;;7334454;19;154050;-14
2021/11/02 21:34:12;;;;;;;0.50;0.47;;;;;;;;;;7334030;19;153552;-17
2021/11/02 21:36:46;;;;;;;1.08;0.38;;;;;;;;;;7334261;19;162021;-16
2021/11/02 21:39:18;;;;;;;1.92;0.45;;;;;;;;;;7333939;19;162409;-15
2021/11/02 21:41:58;;;;;;;0.30;0.30;;;;;;;;;;7331392;19;154409;-15
2021/11/02 21:44:32;;;;;;;0.43;0.40;;;;;;;;;;7331371;19;153600;-16
2021/11/02 21:47:17;;;;;;;0.30;0.30;;;;;;;;;;7333214;19;162448;-14
2021/11/02 21:50:04;;;;;;;0.60;0.40;;;;;;;;;;7332347;19;162520;-14
2021/11/02 21:52:39;;;;;;;0.30;0.30;;;;;;;;;;7332591;19;154025;-14
2021/11/02 21:55:13;;;;;;;0.73;0.50;;;;;;;;;;7333792;19;153763;-16
2021/11/02 21:57:51;;;;;;;0.57;0.57;;;;;;;;;;7334583;19;161599;-15
2021/11/02 22:00:23;;;;;;;0.40;0.40;;;;;;;;;;7330314;19;162935;-14
2021/11/02 22:02:56;;;;;;;0.38;0.38;;;;;;;;;;7332219;19;153982;-14
2021/11/02 22:05:29;;;;;;;0.30;0.30;;;;;;;;;;7332601;19;153616;-14
2021/11/02 22:08:02;;;;;;;0.25;0.25;;;;;;;;;;7332602;19;161817;-13
2021/11/02 22:10:34;;;;;;;0.25;0.20;;;;;;;;;;7331001;19;162356;-14
2021/11/02 22:13:06;;;;;;;0.40;0.40;;;;;;;;;;7331807;19;154144;-16
2021/11/02 22:15:38;;;;;;;0.30;0.30;;;;;;;;;;7331780;19;153787;-14
2021/11/02 22:18:09;;;;;;;0.73;0.50;;;;;;;;;;7332202;19;161796;-15
2021/11/02 22:20:41;;;;;;;0.38;0.38;;;;;;;;;;7331707;19;162522;-16
2021/11/02 22:23:15;;;;;;;2.00;0.30;;;;;;;;;;7332327;19;154001;-13
2021/11/02 22:25:47;;;;;;;0.55;0.40;;;;;;;;;;7332265;19;153639;-16
2021/11/02 22:28:20;;;;;;;0.32;0.30;;;;;;;;;;7331519;19;161958;-16
2021/11/02 22:30:53;;;;;;;0.55;0.32;;;;;;;;;;7332222;19;162559;-16
2021/11/02 22:33:26;;;;;;;0.43;0.40;;;;;;;;;;7331963;19;154054;-17
2021/11/02 22:35:58;;;;;;;0.52;0.30;;;;;;;;;;7330596;19;153710;-15
2021/11/02 22:38:33;;;;;;;0.30;0.30;;;;;;;;;;7331640;19;161922;-15
2021/11/02 22:41:05;;;;;;;0.40;0.40;;;;;;;;;;7330921;19;162537;-15
2021/11/02 22:43:37;;;;;;;0.30;0.30;;;;;;;;;;7332347;19;154109;-14
2021/11/02 22:46:09;;;;;;;0.30;0.30;;;;;;;;;;7330620;19;153556;-14
2021/11/02 22:48:42;;;;;;;0.40;0.40;;;;;;;;;;7330610;19;161786;-15
2021/11/02 22:51:14;;;;;;;0.30;0.30;;;;;;;;;;7331130;19;162261;-13
2021/11/02 22:53:49;;;;;;;0.30;0.30;;;;;;;;;;7329483;19;154051;-15
2021/11/02 22:56:27;;;;;;;0.40;0.40;;;;;;;;;;7328769;19;153540;-15
2021/11/02 22:58:59;;;;;;;0.30;0.30;;;;;;;;;;7326527;19;161968;-15
2021/11/02 23:01:34;;;;;;;0.53;0.40;;;;;;;;;;7328255;19;162700;-16
2021/11/02 23:04:09;;;;;;;0.40;0.40;;;;;;;;;;7331873;19;153950;-16
2021/11/02 23:06:40;;;;;;;0.40;0.40;;;;;;;;;;7328883;19;153747;-13
2021/11/02 23:09:16;;;;;;;0.38;0.38;;;;;;;;;;7330603;19;161862;-15
2021/11/02 23:11:47;;;;;;;2.40;0.60;;;;;;;;;;7330083;19;162499;-16
2021/11/02 23:14:19;;;;;;;0.30;0.30;;;;;;;;;;7331860;19;153981;-16
2021/11/02 23:16:50;;;;;;;0.28;0.28;;;;;;;;;;7330704;19;153832;-16
2021/11/02 23:19:23;;;;;;;0.20;0.20;;;;;;;;;;7330004;19;161846;-14
2021/11/02 23:22:09;;;;;;;;;;;;;;;;;;7334025;19;162321;-14
2021/11/02 23:24:48;;;;;;;0.90;0.30;;;;;;;;;;7335354;19;154325;-13
2021/11/02 23:27:20;;;;;;;0.55;0.30;;;;;;;;;;7337891;19;153743;-15
2021/11/02 23:29:53;;;;;;;;;;;;;;;;;;7338650;19;161974;-13
2021/11/02 23:32:26;;;;;;;0.50;0.35;;;;;;;;;;7337145;19;162513;-14
2021/11/02 23:34:57;;;;;;;0.17;0.17;;;;;;;;;;7336766;19;154023;-14
2021/11/02 23:37:28;;;;;;;1.33;0.40;;;;;;;;;;7336997;19;153930;-16
2021/11/02 23:40:02;;;;;;;1.00;0.40;;;;;;;;;;7337243;19;161596;-13
2021/11/02 23:42:34;;;;;;;2.53;0.32;;;;;;;;;;7334788;19;162412;-14
2021/11/02 23:45:06;;;;;;;0.47;0.45;;;;;;;;;;7337050;19;154019;-14
2021/11/02 23:47:37;;;;;;;0.43;0.30;;;;;;;;;;7337395;19;153667;-15
2021/11/02 23:50:10;;;;;;;0.32;0.30;;;;;;;;;;7336828;19;162071;-15
2021/11/02 23:52:42;;;;;;;0.57;0.30;;;;;;;;;;7332283;19;162490;-16
2021/11/02 23:55:16;;;;;;;0.65;0.47;;;;;;;;;;7333049;19;154024;-15
2021/11/02 23:57:48;;;;;;;0.52;0.30;;;;;;;;;;7334828;19;153610;-14
